createdAt,value
2019-03-04T00:00:19.176Z,980.67
2019-03-04T00:01:19.161Z,980.68
2019-03-04T00:02:19.141Z,980.65
2019-03-04T00:03:19.125Z,980.59
2019-03-04T00:04:19.110Z,980.56
2019-03-04T00:05:19.088Z,980.59
2019-03-04T00:06:19.074Z,980.52
2019-03-04T00:07:19.056Z,980.42
2019-03-04T00:08:19.039Z,980.34
2019-03-04T00:09:19.022Z,980.36
2019-03-04T00:10:19.005Z,980.33
2019-03-04T00:11:18.990Z,980.34
2019-03-04T00:12:18.971Z,980.33
2019-03-04T00:13:18.957Z,980.22
2019-03-04T00:14:18.939Z,980.19
2019-03-04T00:15:18.922Z,980.21
2019-03-04T00:16:18.903Z,980.23
2019-03-04T00:17:18.887Z,980.22
2019-03-04T00:18:18.878Z,980.25
2019-03-04T00:19:18.853Z,980.19
2019-03-04T00:20:18.839Z,980.24
2019-03-04T00:21:18.831Z,980.17
2019-03-04T00:22:18.803Z,980.20
2019-03-04T00:23:18.787Z,980.20
2019-03-04T00:24:18.785Z,980.17
2019-03-04T00:25:18.758Z,980.10
2019-03-04T00:26:18.736Z,980.09
2019-03-04T00:27:18.724Z,980.09
2019-03-04T00:28:18.706Z,980.11
2019-03-04T00:29:18.687Z,980.07
2019-03-04T00:30:18.667Z,980.05
2019-03-04T00:31:18.652Z,980.03
2019-03-04T00:32:18.643Z,980.00
2019-03-04T00:33:18.622Z,979.99
2019-03-04T00:34:18.597Z,979.96
2019-03-04T00:35:18.586Z,979.96
2019-03-04T00:36:18.567Z,979.90
2019-03-04T00:37:18.553Z,979.90
2019-03-04T00:38:18.537Z,979.92
2019-03-04T00:39:18.519Z,979.89
2019-03-04T00:40:18.519Z,979.86
2019-03-04T00:41:18.488Z,979.85
2019-03-04T00:42:18.470Z,979.87
2019-03-04T00:43:18.452Z,979.94
2019-03-04T00:44:18.435Z,979.87
2019-03-04T00:45:18.427Z,979.90
2019-03-04T00:46:18.402Z,979.84
2019-03-04T00:47:18.397Z,979.86
2019-03-04T00:48:18.367Z,979.87
2019-03-04T00:49:18.402Z,979.95
2019-03-04T00:50:18.335Z,979.83
2019-03-04T00:51:18.318Z,979.79
2019-03-04T00:52:18.300Z,979.75
2019-03-04T00:53:18.284Z,979.74
2019-03-04T00:54:18.267Z,979.72
2019-03-04T00:55:18.253Z,979.75
2019-03-04T00:56:18.236Z,979.81
2019-03-04T00:57:18.218Z,979.78
2019-03-04T00:58:18.201Z,979.82
2019-03-04T00:59:18.185Z,979.80
2019-03-04T01:00:18.172Z,979.83
2019-03-04T01:01:18.181Z,979.86
2019-03-04T01:02:18.134Z,979.77
2019-03-04T01:03:18.118Z,979.65
2019-03-04T01:04:18.101Z,979.64
2019-03-04T01:05:18.088Z,979.53
2019-03-04T01:06:18.071Z,979.58
2019-03-04T01:07:18.060Z,979.56
2019-03-04T01:08:18.034Z,979.54
2019-03-04T01:09:18.021Z,979.49
2019-03-04T01:10:18.006Z,979.43
2019-03-04T01:11:17.987Z,979.45
2019-03-04T01:12:17.971Z,979.36
2019-03-04T01:13:17.954Z,979.31
2019-03-04T01:14:17.938Z,979.23
2019-03-04T01:15:17.920Z,979.29
2019-03-04T01:16:17.903Z,979.32
2019-03-04T01:17:17.889Z,979.28
2019-03-04T01:18:17.865Z,979.22
2019-03-04T01:19:17.855Z,979.22
2019-03-04T01:20:17.838Z,979.26
2019-03-04T01:21:17.822Z,979.35
2019-03-04T01:22:17.806Z,979.35
2019-03-04T01:23:17.783Z,979.51
2019-03-04T01:24:17.771Z,979.40
2019-03-04T01:25:17.757Z,979.49
2019-03-04T01:26:17.739Z,979.56
2019-03-04T01:27:17.725Z,979.52
2019-03-04T01:28:17.706Z,979.53
2019-03-04T01:29:17.694Z,979.43
2019-03-04T01:30:17.674Z,979.39
2019-03-04T01:31:17.657Z,979.24
2019-03-04T01:32:17.647Z,979.33
2019-03-04T01:33:17.622Z,979.40
2019-03-04T01:34:17.625Z,979.46
2019-03-04T01:35:17.590Z,979.42
2019-03-04T01:36:17.581Z,979.33
2019-03-04T01:37:17.571Z,979.26
2019-03-04T01:38:17.540Z,979.31
2019-03-04T01:39:17.523Z,979.24
2019-03-04T01:40:17.507Z,979.22
2019-03-04T01:41:17.489Z,979.27
2019-03-04T01:42:17.474Z,979.28
2019-03-04T01:43:17.458Z,979.25
2019-03-04T01:44:17.441Z,979.17
2019-03-04T01:45:17.426Z,979.21
2019-03-04T01:46:17.417Z,979.22
2019-03-04T01:47:17.389Z,979.23
2019-03-04T01:48:17.373Z,979.14
2019-03-04T01:49:17.357Z,979.15
2019-03-04T01:50:17.340Z,979.20
2019-03-04T01:51:17.327Z,979.13
2019-03-04T01:52:17.312Z,979.14
2019-03-04T01:53:17.289Z,979.12
2019-03-04T01:54:17.272Z,979.05
2019-03-04T01:55:17.254Z,979.14
2019-03-04T01:56:17.240Z,979.13
2019-03-04T01:57:17.226Z,979.07
2019-03-04T01:58:17.206Z,979.03
2019-03-04T01:59:17.190Z,979.16
2019-03-04T02:00:17.175Z,979.06
2019-03-04T02:01:17.156Z,979.12
2019-03-04T02:02:17.135Z,979.10
2019-03-04T02:03:17.136Z,979.04
2019-03-04T02:04:17.107Z,979.03
2019-03-04T02:05:17.091Z,978.99
2019-03-04T02:06:17.073Z,978.97
2019-03-04T02:07:17.058Z,978.84
2019-03-04T02:08:17.038Z,978.94
2019-03-04T02:09:17.024Z,978.88
2019-03-04T02:10:17.008Z,978.89
2019-03-04T02:11:16.988Z,978.72
2019-03-04T02:12:16.972Z,978.72
2019-03-04T02:13:16.957Z,978.71
2019-03-04T02:14:16.945Z,978.65
2019-03-04T02:15:16.924Z,978.72
2019-03-04T02:16:16.909Z,978.77
2019-03-04T02:17:16.892Z,978.70
2019-03-04T02:18:16.877Z,978.70
2019-03-04T02:19:16.859Z,978.73
2019-03-04T02:20:16.841Z,978.73
2019-03-04T02:21:16.824Z,978.77
2019-03-04T02:22:16.809Z,978.70
2019-03-04T02:23:16.798Z,978.71
2019-03-04T02:24:16.779Z,978.71
2019-03-04T02:25:16.758Z,978.59
2019-03-04T02:26:16.743Z,978.66
2019-03-04T02:27:16.728Z,978.64
2019-03-04T02:28:16.710Z,978.61
2019-03-04T02:29:16.697Z,978.59
2019-03-04T02:30:16.679Z,978.69
2019-03-04T02:31:16.663Z,978.67
2019-03-04T02:32:16.646Z,978.65
2019-03-04T02:33:16.631Z,978.64
2019-03-04T02:34:16.614Z,978.70
2019-03-04T02:35:16.602Z,978.63
2019-03-04T02:36:16.587Z,978.63
2019-03-04T02:37:16.563Z,978.63
2019-03-04T02:38:16.550Z,978.66
2019-03-04T02:39:16.530Z,978.65
2019-03-04T02:40:16.523Z,978.61
2019-03-04T02:41:16.499Z,978.66
2019-03-04T02:42:16.482Z,978.61
2019-03-04T02:43:16.473Z,978.59
2019-03-04T02:44:16.450Z,978.57
2019-03-04T02:45:16.434Z,978.55
2019-03-04T02:46:16.418Z,978.46
2019-03-04T02:47:16.406Z,978.51
2019-03-04T02:48:16.383Z,978.49
2019-03-04T02:49:16.367Z,978.38
2019-03-04T02:50:16.354Z,978.43
2019-03-04T02:51:16.339Z,978.40
2019-03-04T02:52:16.320Z,978.35
2019-03-04T02:53:16.316Z,978.37
2019-03-04T02:54:16.289Z,978.46
2019-03-04T02:55:16.269Z,978.36
2019-03-04T02:56:16.252Z,978.35
2019-03-04T02:57:16.241Z,978.33
2019-03-04T02:58:16.258Z,978.29
2019-03-04T02:59:16.205Z,978.17
2019-03-04T03:00:16.196Z,978.21
2019-03-04T03:01:16.167Z,978.18
2019-03-04T03:02:16.159Z,978.16
2019-03-04T03:03:16.136Z,978.11
2019-03-04T03:04:16.141Z,978.08
2019-03-04T03:05:16.113Z,978.08
2019-03-04T03:06:16.094Z,978.06
2019-03-04T03:07:16.073Z,977.98
2019-03-04T03:08:16.056Z,977.98
2019-03-04T03:09:16.038Z,977.98
2019-03-04T03:10:16.023Z,977.96
2019-03-04T03:11:16.007Z,977.87
2019-03-04T03:12:15.990Z,977.94
2019-03-04T03:13:15.973Z,977.90
2019-03-04T03:14:15.957Z,977.80
2019-03-04T03:15:15.941Z,977.79
2019-03-04T03:16:15.924Z,977.72
2019-03-04T03:17:15.908Z,977.66
2019-03-04T03:18:15.892Z,977.64
2019-03-04T03:19:15.876Z,977.54
2019-03-04T03:20:15.865Z,977.45
2019-03-04T03:21:15.843Z,977.45
2019-03-04T03:22:15.826Z,977.30
2019-03-04T03:23:15.808Z,977.24
2019-03-04T03:24:15.846Z,977.13
2019-03-04T03:25:15.788Z,977.01
2019-03-04T03:26:15.761Z,976.95
2019-03-04T03:27:15.743Z,976.87
2019-03-04T03:28:15.727Z,976.75
2019-03-04T03:29:15.710Z,976.67
2019-03-04T03:30:15.721Z,976.61
2019-03-04T03:31:15.678Z,976.43
2019-03-04T03:32:15.675Z,976.23
2019-03-04T03:33:15.643Z,976.11
2019-03-04T03:34:15.629Z,976.16
2019-03-04T03:35:15.623Z,976.15
2019-03-04T03:36:15.598Z,976.13
2019-03-04T03:37:15.595Z,976.20
2019-03-04T03:38:15.562Z,976.24
2019-03-04T03:39:15.547Z,976.31
2019-03-04T03:40:15.531Z,976.37
2019-03-04T03:41:15.512Z,976.41
2019-03-04T03:42:18.484Z,976.49
2019-03-04T03:43:15.482Z,976.46
2019-03-04T03:44:15.462Z,976.45
2019-03-04T03:45:15.447Z,976.46
2019-03-04T03:46:15.444Z,976.44
2019-03-04T03:47:15.436Z,976.53
2019-03-04T03:48:15.398Z,976.50
2019-03-04T03:49:15.380Z,976.46
2019-03-04T03:50:15.366Z,976.51
2019-03-04T03:51:15.348Z,976.47
2019-03-04T03:52:15.332Z,976.46
2019-03-04T03:53:15.315Z,976.46
2019-03-04T03:54:15.302Z,976.51
2019-03-04T03:55:15.285Z,976.24
2019-03-04T03:56:15.264Z,976.11
2019-03-04T03:57:15.252Z,976.07
2019-03-04T03:58:15.237Z,976.03
2019-03-04T03:59:15.210Z,975.65
2019-03-04T04:00:15.206Z,975.49
2019-03-04T04:01:15.184Z,975.66
2019-03-04T04:02:15.176Z,975.63
2019-03-04T04:03:15.150Z,975.65
2019-03-04T04:04:15.137Z,975.69
2019-03-04T04:05:15.117Z,975.78
2019-03-04T04:06:15.100Z,975.84
2019-03-04T04:07:15.084Z,975.77
2019-03-04T04:08:15.075Z,975.84
2019-03-04T04:09:15.055Z,975.94
2019-03-04T04:10:15.033Z,975.91
2019-03-04T04:11:15.089Z,976.01
2019-03-04T04:12:15.000Z,976.22
2019-03-04T04:13:14.991Z,976.28
2019-03-04T04:14:14.967Z,976.32
2019-03-04T04:15:14.959Z,976.43
2019-03-04T04:16:14.936Z,976.41
2019-03-04T04:17:14.917Z,976.36
2019-03-04T04:18:14.905Z,976.36
2019-03-04T04:19:14.886Z,976.26
2019-03-04T04:20:14.874Z,976.24
2019-03-04T04:21:14.856Z,976.21
2019-03-04T04:22:14.839Z,976.14
2019-03-04T04:23:14.830Z,976.12
2019-03-04T04:24:14.802Z,976.18
2019-03-04T04:25:14.838Z,976.11
2019-03-04T04:26:14.770Z,976.21
2019-03-04T04:27:14.756Z,976.11
2019-03-04T04:28:14.749Z,976.12
2019-03-04T04:29:14.725Z,976.09
2019-03-04T04:30:14.703Z,976.09
2019-03-04T04:31:14.686Z,976.07
2019-03-04T04:32:14.668Z,976.10
2019-03-04T04:33:14.652Z,976.08
2019-03-04T04:34:14.641Z,976.10
2019-03-04T04:35:14.617Z,976.00
2019-03-04T04:36:14.602Z,976.03
2019-03-04T04:37:14.585Z,976.04
2019-03-04T04:38:14.575Z,976.01
2019-03-04T04:39:14.665Z,975.95
2019-03-04T04:40:14.558Z,975.97
2019-03-04T04:41:14.519Z,975.96
2019-03-04T04:42:14.504Z,975.89
2019-03-04T04:43:14.636Z,975.92
2019-03-04T04:44:14.487Z,975.87
2019-03-04T04:45:14.494Z,975.87
2019-03-04T04:46:14.446Z,975.82
2019-03-04T04:47:14.423Z,975.83
2019-03-04T04:48:22.630Z,975.74
2019-03-04T04:50:07.300Z,975.61
2019-03-04T04:51:07.248Z,975.54
2019-03-04T04:53:00.113Z,975.65
2019-03-04T04:54:00.087Z,975.67
2019-03-04T04:55:00.099Z,975.56
2019-03-04T04:56:00.057Z,975.60
2019-03-04T04:57:00.037Z,975.60
2019-03-04T04:58:00.020Z,975.53
2019-03-04T04:59:00.001Z,975.43
2019-03-04T04:59:59.985Z,975.42
2019-03-04T05:00:59.973Z,975.40
2019-03-04T05:01:59.960Z,975.30
2019-03-04T05:02:59.938Z,975.26
2019-03-04T05:03:59.920Z,975.27
2019-03-04T05:04:59.904Z,975.30
2019-03-04T05:05:59.901Z,975.24
2019-03-04T05:06:59.872Z,975.23
2019-03-04T05:07:59.856Z,975.22
2019-03-04T05:08:59.841Z,975.18
2019-03-04T05:09:59.822Z,975.09
2019-03-04T05:10:59.807Z,975.03
2019-03-04T05:11:59.895Z,975.04
2019-03-04T05:12:59.775Z,975.12
2019-03-04T05:13:59.764Z,975.06
2019-03-04T05:14:59.741Z,975.03
2019-03-04T05:15:59.734Z,975.00
2019-03-04T05:16:59.705Z,975.01
2019-03-04T05:17:59.693Z,975.04
2019-03-04T05:18:59.681Z,975.02
2019-03-04T05:19:59.661Z,974.93
2019-03-04T05:20:59.646Z,974.92
2019-03-04T05:21:59.627Z,974.96
2019-03-04T05:22:59.621Z,974.88
2019-03-04T05:23:59.596Z,974.91
2019-03-04T05:24:59.579Z,974.81
2019-03-04T05:25:59.564Z,974.78
2019-03-04T05:26:59.547Z,974.82
2019-03-04T05:27:59.530Z,974.78
2019-03-04T05:28:59.515Z,974.80
2019-03-04T05:29:59.499Z,974.76
2019-03-04T05:30:59.483Z,974.76
2019-03-04T05:31:59.467Z,974.80
2019-03-04T05:32:59.454Z,974.80
2019-03-04T05:33:59.434Z,974.74
2019-03-04T05:34:59.416Z,974.68
2019-03-04T05:35:59.398Z,974.66
2019-03-04T05:36:59.382Z,974.66
2019-03-04T05:37:59.380Z,974.50
2019-03-04T05:38:59.348Z,974.49
2019-03-04T05:39:59.333Z,974.40
2019-03-04T05:40:59.316Z,974.31
2019-03-04T05:41:59.300Z,974.17
2019-03-04T05:42:59.282Z,974.10
2019-03-04T05:43:59.267Z,974.04
2019-03-04T05:44:59.256Z,974.08
2019-03-04T05:45:59.234Z,974.10
2019-03-04T05:46:59.215Z,974.04
2019-03-04T05:47:59.200Z,973.99
2019-03-04T05:48:59.186Z,973.92
2019-03-04T05:49:59.167Z,973.82
2019-03-04T05:50:59.147Z,973.74
2019-03-04T05:51:59.137Z,973.60
2019-03-04T05:52:59.118Z,973.52
2019-03-04T05:53:59.101Z,973.49
2019-03-04T05:54:59.084Z,973.57
2019-03-04T05:55:59.089Z,973.58
2019-03-04T05:56:59.054Z,973.62
2019-03-04T05:57:59.034Z,973.75
2019-03-04T05:58:59.017Z,973.79
2019-03-04T05:59:59.001Z,973.86
2019-03-04T06:00:58.989Z,973.74
2019-03-04T06:01:58.968Z,973.77
2019-03-04T06:02:58.950Z,973.84
2019-03-04T06:03:58.935Z,973.81
2019-03-04T06:04:58.932Z,973.70
2019-03-04T06:05:58.902Z,973.51
2019-03-04T06:06:58.883Z,973.45
2019-03-04T06:07:58.870Z,973.37
2019-03-04T06:08:58.851Z,973.27
2019-03-04T06:09:58.837Z,973.30
2019-03-04T06:10:58.820Z,973.28
2019-03-04T06:11:58.802Z,973.34
2019-03-04T06:12:59.040Z,973.35
2019-03-04T06:13:58.772Z,973.40
2019-03-04T06:14:58.748Z,973.42
2019-03-04T06:15:58.735Z,973.42
2019-03-04T06:16:58.718Z,973.48
2019-03-04T06:17:58.704Z,973.49
2019-03-04T06:18:58.686Z,973.60
2019-03-04T06:19:58.668Z,973.60
2019-03-04T06:20:58.652Z,973.68
2019-03-04T06:21:58.635Z,973.86
2019-03-04T06:22:58.622Z,973.87
2019-03-04T06:23:58.602Z,973.87
2019-03-04T06:24:58.592Z,973.90
2019-03-04T06:25:58.572Z,973.95
2019-03-04T06:26:58.558Z,973.97
2019-03-04T06:27:58.542Z,973.92
2019-03-04T06:28:58.521Z,973.94
2019-03-04T06:29:58.506Z,973.94
2019-03-04T06:30:58.488Z,974.04
2019-03-04T06:31:58.484Z,973.95
2019-03-04T06:32:58.452Z,974.01
2019-03-04T06:33:58.440Z,974.05
2019-03-04T06:34:58.420Z,974.03
2019-03-04T06:35:58.412Z,974.07
2019-03-04T06:36:58.390Z,974.12
2019-03-04T06:37:58.372Z,974.27
2019-03-04T06:38:58.354Z,974.23
2019-03-04T06:39:58.356Z,974.27
2019-03-04T06:40:58.322Z,974.22
2019-03-04T06:41:58.305Z,974.26
2019-03-04T06:42:58.289Z,974.35
2019-03-04T06:43:58.273Z,974.37
2019-03-04T06:44:58.255Z,974.44
2019-03-04T06:45:58.245Z,974.42
2019-03-04T06:46:58.223Z,974.41
2019-03-04T06:47:58.212Z,974.50
2019-03-04T06:48:58.192Z,974.42
2019-03-04T06:49:58.181Z,974.49
2019-03-04T06:50:58.158Z,974.58
2019-03-04T06:51:58.141Z,974.65
2019-03-04T06:52:58.126Z,974.66
2019-03-04T06:53:58.109Z,974.82
2019-03-04T06:54:58.092Z,974.80
2019-03-04T06:55:58.077Z,974.78
2019-03-04T06:56:58.059Z,974.81
2019-03-04T06:57:58.042Z,974.69
2019-03-04T06:58:58.026Z,974.77
2019-03-04T06:59:58.011Z,974.77
2019-03-04T07:00:57.997Z,974.90
2019-03-04T07:01:57.980Z,975.11
2019-03-04T07:02:57.961Z,974.74
2019-03-04T07:03:57.946Z,974.75
2019-03-04T07:04:59.422Z,974.90
2019-03-04T07:05:57.914Z,974.91
2019-03-04T07:06:57.894Z,975.17
2019-03-04T07:07:57.881Z,975.14
2019-03-04T07:08:57.864Z,974.48
2019-03-04T07:09:57.846Z,974.66
2019-03-04T07:10:57.827Z,974.38
2019-03-04T07:11:57.817Z,974.26
2019-03-04T07:12:57.793Z,974.23
2019-03-04T07:13:57.778Z,974.33
2019-03-04T07:14:57.762Z,974.10
2019-03-04T07:15:57.742Z,974.01
2019-03-04T07:16:57.725Z,973.99
2019-03-04T07:17:57.706Z,973.94
2019-03-04T07:18:57.691Z,973.71
2019-03-04T07:19:57.669Z,973.69
2019-03-04T07:20:57.670Z,973.64
2019-03-04T07:21:57.640Z,973.98
2019-03-04T07:22:57.620Z,973.65
2019-03-04T07:23:57.602Z,973.51
2019-03-04T07:24:57.584Z,973.27
2019-03-04T07:25:57.568Z,973.27
2019-03-04T07:26:57.553Z,973.36
2019-03-04T07:27:57.532Z,973.31
2019-03-04T07:28:57.516Z,972.93
2019-03-04T07:29:57.501Z,973.03
2019-03-04T07:30:57.481Z,972.86
2019-03-04T07:31:57.465Z,972.98
2019-03-04T07:32:57.449Z,973.10
2019-03-04T07:33:57.426Z,973.04
2019-03-04T07:34:57.411Z,973.21
2019-03-04T07:35:57.414Z,973.08
2019-03-04T07:36:57.378Z,972.54
2019-03-04T07:37:57.368Z,972.62
2019-03-04T07:38:57.352Z,972.98
2019-03-04T07:39:57.327Z,973.03
2019-03-04T07:40:57.310Z,973.35
2019-03-04T07:41:57.293Z,973.61
2019-03-04T07:42:57.274Z,973.61
2019-03-04T07:43:57.258Z,973.59
2019-03-04T07:44:57.242Z,973.43
2019-03-04T07:45:57.228Z,973.41
2019-03-04T07:46:57.206Z,973.30
2019-03-04T07:47:57.190Z,973.27
2019-03-04T07:48:57.172Z,973.05
2019-03-04T07:49:57.158Z,972.92
2019-03-04T07:50:57.137Z,972.98
2019-03-04T07:51:57.120Z,973.03
2019-03-04T07:52:57.106Z,972.98
2019-03-04T07:53:57.089Z,973.01
2019-03-04T07:54:57.089Z,972.92
2019-03-04T07:55:57.056Z,973.21
2019-03-04T07:56:57.040Z,973.15
2019-03-04T07:57:57.020Z,973.05
2019-03-04T07:58:57.010Z,972.97
2019-03-04T07:59:56.991Z,972.82
2019-03-04T08:00:56.973Z,972.96
2019-03-04T08:01:56.948Z,972.78
2019-03-04T08:02:56.937Z,972.87
2019-03-04T08:03:56.920Z,972.95
2019-03-04T08:04:56.906Z,972.82
2019-03-04T08:05:57.763Z,973.04
2019-03-04T08:06:56.870Z,973.03
2019-03-04T08:07:56.854Z,972.77
2019-03-04T08:08:56.836Z,972.48
2019-03-04T08:09:56.820Z,972.67
2019-03-04T08:10:56.818Z,972.65
2019-03-04T08:11:56.863Z,972.85
2019-03-04T08:12:56.833Z,973.06
2019-03-04T08:13:56.753Z,972.94
2019-03-04T08:14:56.736Z,973.02
2019-03-04T08:15:56.722Z,972.97
2019-03-04T08:16:56.704Z,973.04
2019-03-04T08:17:56.680Z,972.78
2019-03-04T08:18:56.670Z,972.82
2019-03-04T08:19:56.656Z,972.84
2019-03-04T08:20:56.637Z,973.02
2019-03-04T08:21:56.622Z,973.11
2019-03-04T08:22:56.606Z,973.03
2019-03-04T08:23:56.593Z,973.05
2019-03-04T08:24:56.572Z,972.88
2019-03-04T08:25:56.560Z,973.07
2019-03-04T08:26:56.539Z,973.16
2019-03-04T08:27:56.527Z,973.02
2019-03-04T08:28:58.666Z,973.08
2019-03-04T08:29:56.493Z,972.83
2019-03-04T08:30:56.474Z,972.78
2019-03-04T08:31:56.470Z,972.86
2019-03-04T08:32:56.444Z,972.88
2019-03-04T08:33:56.429Z,972.78
2019-03-04T08:34:56.412Z,972.86
2019-03-04T08:35:56.395Z,972.77
2019-03-04T08:36:56.380Z,972.92
2019-03-04T08:37:56.363Z,973.18
2019-03-04T08:38:56.349Z,973.28
2019-03-04T08:39:56.332Z,973.29
2019-03-04T08:40:56.314Z,973.25
2019-03-04T08:41:56.299Z,973.08
2019-03-04T08:42:56.283Z,973.24
2019-03-04T08:43:56.266Z,973.07
2019-03-04T08:44:56.249Z,973.14
2019-03-04T08:45:56.235Z,973.27
2019-03-04T08:46:56.217Z,973.28
2019-03-04T08:47:56.216Z,973.19
2019-03-04T08:48:56.206Z,973.21
2019-03-04T08:49:56.169Z,973.18
2019-03-04T08:50:56.154Z,973.24
2019-03-04T08:51:56.141Z,973.15
2019-03-04T08:52:56.125Z,973.22
2019-03-04T08:53:56.105Z,973.14
2019-03-04T08:54:56.089Z,972.98
2019-03-04T08:55:56.077Z,973.25
2019-03-04T08:57:03.629Z,973.30
2019-03-04T08:57:56.042Z,973.36
2019-03-04T08:58:56.030Z,973.45
2019-03-04T08:59:56.024Z,973.38
2019-03-04T09:00:56.002Z,973.48
2019-03-04T09:01:55.979Z,973.55
2019-03-04T09:02:55.962Z,973.61
2019-03-04T09:03:55.946Z,973.86
2019-03-04T09:04:55.930Z,973.78
2019-03-04T09:05:55.917Z,973.86
2019-03-04T09:06:55.898Z,974.12
2019-03-04T09:07:55.965Z,974.27
2019-03-04T09:08:55.866Z,974.20
2019-03-04T09:09:55.849Z,974.44
2019-03-04T09:10:55.833Z,974.38
2019-03-04T09:11:55.815Z,974.20
2019-03-04T09:12:55.800Z,974.14
2019-03-04T09:13:55.788Z,974.18
2019-03-04T09:14:55.774Z,974.12
2019-03-04T09:15:55.751Z,974.18
2019-03-04T09:16:55.738Z,974.27
2019-03-04T09:17:55.718Z,974.26
2019-03-04T09:18:55.703Z,974.42
2019-03-04T09:19:55.684Z,974.41
2019-03-04T09:20:55.668Z,974.45
2019-03-04T09:21:55.652Z,974.47
2019-03-04T09:22:55.635Z,974.25
2019-03-04T09:23:55.618Z,974.17
2019-03-04T09:24:55.610Z,974.08
2019-03-04T09:25:55.601Z,974.10
2019-03-04T09:26:55.623Z,974.04
2019-03-04T09:27:55.580Z,974.25
2019-03-04T09:28:55.538Z,974.34
2019-03-04T09:29:55.521Z,974.35
2019-03-04T09:30:55.522Z,974.35
2019-03-04T09:31:55.479Z,974.42
2019-03-04T09:32:55.479Z,974.24
2019-03-04T09:33:55.457Z,974.38
2019-03-04T09:34:55.436Z,974.39
2019-03-04T09:35:55.421Z,974.64
2019-03-04T09:36:55.419Z,974.73
2019-03-04T09:37:55.387Z,974.59
2019-03-04T09:38:55.370Z,974.62
2019-03-04T09:39:55.352Z,974.63
2019-03-04T09:40:55.338Z,974.52
2019-03-04T09:41:55.321Z,974.48
2019-03-04T09:42:55.301Z,974.45
2019-03-04T09:43:55.285Z,974.42
2019-03-04T09:44:55.261Z,974.60
2019-03-04T09:45:55.253Z,974.57
2019-03-04T09:46:55.236Z,974.37
2019-03-04T09:47:55.218Z,974.54
2019-03-04T09:48:55.202Z,974.50
2019-03-04T09:49:55.218Z,974.48
2019-03-04T09:50:55.165Z,974.34
2019-03-04T09:51:55.150Z,974.49
2019-03-04T09:52:55.157Z,974.35
2019-03-04T09:53:55.115Z,974.31
2019-03-04T09:54:55.098Z,974.63
2019-03-04T09:55:55.086Z,974.23
2019-03-04T09:56:55.065Z,974.34
2019-03-04T09:57:55.048Z,974.30
2019-03-04T09:58:55.028Z,974.50
2019-03-04T09:59:55.013Z,974.42
2019-03-04T10:00:54.996Z,974.39
2019-03-04T10:01:54.980Z,974.26
2019-03-04T10:02:54.964Z,974.37
2019-03-04T10:03:54.945Z,974.53
2019-03-04T10:04:54.931Z,974.41
2019-03-04T10:05:54.937Z,974.40
2019-03-04T10:06:54.888Z,974.42
2019-03-04T10:07:54.876Z,974.58
2019-03-04T10:08:54.864Z,974.55
2019-03-04T10:09:54.843Z,974.44
2019-03-04T10:10:54.825Z,974.65
2019-03-04T10:11:54.809Z,974.41
2019-03-04T10:12:54.792Z,974.32
2019-03-04T10:13:54.777Z,974.28
2019-03-04T10:14:54.757Z,974.14
2019-03-04T10:15:54.755Z,974.21
2019-03-04T10:16:54.730Z,974.23
2019-03-04T10:17:54.728Z,974.24
2019-03-04T10:18:54.691Z,974.17
2019-03-04T10:19:54.676Z,974.03
2019-03-04T10:20:54.651Z,974.00
2019-03-04T10:21:54.639Z,973.95
2019-03-04T10:22:54.677Z,973.93
2019-03-04T10:23:54.605Z,973.96
2019-03-04T10:24:54.586Z,974.13
2019-03-04T10:25:54.571Z,974.52
2019-03-04T10:26:54.553Z,974.52
2019-03-04T10:27:54.536Z,974.62
2019-03-04T10:28:54.520Z,974.74
2019-03-04T10:29:54.502Z,974.70
2019-03-04T10:30:54.484Z,974.50
2019-03-04T10:31:54.467Z,974.38
2019-03-04T10:32:54.451Z,974.14
2019-03-04T10:33:54.470Z,974.24
2019-03-04T10:34:54.414Z,974.25
2019-03-04T10:35:54.397Z,974.23
2019-03-04T10:36:54.384Z,974.20
2019-03-04T10:37:54.362Z,974.37
2019-03-04T10:38:54.346Z,974.70
2019-03-04T10:39:54.331Z,974.58
2019-03-04T10:40:54.547Z,974.47
2019-03-04T10:41:54.293Z,974.30
2019-03-04T10:42:54.275Z,974.28
2019-03-04T10:43:54.257Z,974.23
2019-03-04T10:44:54.241Z,974.25
2019-03-04T10:45:54.225Z,974.23
2019-03-04T10:46:54.202Z,974.19
2019-03-04T10:47:54.190Z,974.12
2019-03-04T10:48:54.168Z,974.18
2019-03-04T10:49:54.159Z,974.11
2019-03-04T10:50:54.143Z,974.09
2019-03-04T10:51:54.118Z,974.04
2019-03-04T10:52:54.097Z,974.09
2019-03-04T10:53:54.081Z,974.03
2019-03-04T10:54:54.069Z,974.14
2019-03-04T10:55:54.045Z,974.18
2019-03-04T10:56:54.033Z,974.17
2019-03-04T10:57:54.010Z,974.01
2019-03-04T10:58:54.261Z,973.98
2019-03-04T10:59:53.976Z,974.00
2019-03-04T11:00:53.957Z,974.10
2019-03-04T11:01:53.939Z,974.31
2019-03-04T11:02:53.921Z,974.38
2019-03-04T11:03:53.903Z,974.47
2019-03-04T11:04:53.887Z,974.50
2019-03-04T11:05:53.885Z,974.45
2019-03-04T11:06:54.930Z,974.16
2019-03-04T11:07:53.833Z,974.20
2019-03-04T11:08:53.819Z,974.12
2019-03-04T11:09:53.799Z,974.05
2019-03-04T11:10:53.783Z,974.16
2019-03-04T11:11:53.764Z,973.98
2019-03-04T11:12:53.747Z,973.99
2019-03-04T11:13:53.731Z,973.92
2019-03-04T11:14:53.711Z,974.03
2019-03-04T11:15:53.696Z,973.95
2019-03-04T11:16:53.680Z,974.00
2019-03-04T11:17:54.529Z,973.87
2019-03-04T11:18:53.645Z,973.85
2019-03-04T11:19:53.637Z,973.77
2019-03-04T11:20:53.614Z,973.77
2019-03-04T11:21:53.609Z,973.96
2019-03-04T11:22:53.838Z,973.71
2019-03-04T11:23:53.566Z,973.75
2019-03-04T11:24:54.263Z,973.77
2019-03-04T11:25:53.533Z,973.83
2019-03-04T11:26:53.520Z,973.81
2019-03-04T11:27:53.506Z,973.89
2019-03-04T11:28:53.486Z,973.84
2019-03-04T11:29:53.476Z,973.89
2019-03-04T11:30:53.461Z,973.80
2019-03-04T11:31:53.456Z,973.67
2019-03-04T11:32:53.449Z,973.60
2019-03-04T11:33:53.422Z,973.81
2019-03-04T11:34:53.415Z,973.92
2019-03-04T11:35:53.389Z,973.71
2019-03-04T11:36:53.376Z,974.02
2019-03-04T11:37:53.364Z,973.71
2019-03-04T11:38:53.364Z,973.71
2019-03-04T11:39:53.348Z,973.71
2019-03-04T11:40:53.324Z,974.05
2019-03-04T11:41:53.316Z,973.82
2019-03-04T11:42:53.293Z,973.83
2019-03-04T11:43:53.287Z,973.85
2019-03-04T11:44:53.273Z,973.92
2019-03-04T11:45:53.256Z,973.78
2019-03-04T11:46:53.251Z,973.78
2019-03-04T11:47:53.229Z,973.70
2019-03-04T11:48:53.219Z,973.70
2019-03-04T11:49:53.525Z,973.91
2019-03-04T11:50:53.191Z,973.71
2019-03-04T11:51:53.178Z,973.63
2019-03-04T11:52:53.168Z,973.70
2019-03-04T11:53:53.154Z,973.57
2019-03-04T11:54:53.138Z,973.62
2019-03-04T11:55:53.571Z,973.72
2019-03-04T11:56:53.119Z,973.60
2019-03-04T11:57:53.101Z,973.62
2019-03-04T11:58:53.086Z,973.40
2019-03-04T11:59:53.070Z,973.41
2019-03-04T12:00:53.063Z,973.43
2019-03-04T12:01:53.047Z,973.60
2019-03-04T12:02:53.034Z,973.55
2019-03-04T12:03:53.019Z,973.61
2019-03-04T12:04:53.005Z,973.63
2019-03-04T12:05:52.989Z,973.57
2019-03-04T12:06:52.975Z,973.68
2019-03-04T12:07:52.957Z,973.65
2019-03-04T12:08:52.947Z,973.52
2019-03-04T12:09:52.933Z,973.67
2019-03-04T12:10:52.917Z,973.87
2019-03-04T12:11:52.902Z,973.65
2019-03-04T12:12:52.883Z,973.73
2019-03-04T12:13:52.874Z,973.74
2019-03-04T12:14:52.864Z,973.72
2019-03-04T12:15:52.844Z,973.68
2019-03-04T12:16:52.848Z,973.61
2019-03-04T12:17:52.814Z,973.68
2019-03-04T12:18:52.806Z,973.69
2019-03-04T12:19:52.783Z,973.61
2019-03-04T12:20:52.768Z,973.62
2019-03-04T12:21:52.750Z,973.53
2019-03-04T12:22:52.734Z,973.63
2019-03-04T12:23:52.722Z,973.60
2019-03-04T12:24:52.709Z,973.46
2019-03-04T12:25:52.693Z,973.53
2019-03-04T12:26:52.676Z,973.61
2019-03-04T12:27:52.683Z,973.45
2019-03-04T12:28:52.641Z,973.67
2019-03-04T12:29:52.641Z,973.52